createdAt,value
2019-04-26T00:01:33.635Z,5.67
2019-04-26T00:04:05.487Z,6.13
2019-04-26T00:06:36.700Z,6.17
2019-04-26T00:09:22.498Z,6.47
2019-04-26T00:12:32.679Z,6.87
2019-04-26T00:15:41.532Z,6.83
2019-04-26T00:18:12.927Z,6.40
2019-04-26T00:20:44.219Z,7.50
2019-04-26T00:23:16.139Z,6.90
2019-04-26T00:25:47.183Z,6.73
2019-04-26T00:28:18.966Z,6.83
2019-04-26T00:30:51.955Z,7.70
2019-04-26T00:33:23.112Z,8.87
2019-04-26T00:35:54.510Z,7.20
2019-04-26T00:38:25.679Z,8.20
2019-04-26T00:40:58.299Z,7.00
2019-04-26T00:43:29.815Z,6.90
2019-04-26T00:46:02.790Z,7.77
2019-04-26T00:48:34.263Z,9.17
2019-04-26T00:51:06.247Z,8.23
2019-04-26T00:53:39.436Z,8.00
2019-04-26T00:56:11.652Z,7.93
2019-04-26T00:58:42.932Z,8.10
2019-04-26T01:01:16.507Z,7.00
2019-04-26T01:03:47.884Z,7.37
2019-04-26T01:06:22.953Z,8.00
2019-04-26T01:08:54.045Z,7.73
2019-04-26T01:11:26.055Z,8.47
2019-04-26T01:13:57.599Z,9.00
2019-04-26T01:16:28.507Z,9.60
2019-04-26T01:18:59.574Z,8.90
2019-04-26T01:21:37.819Z,10.33
2019-04-26T01:24:11.585Z,9.33
2019-04-26T01:26:44.175Z,9.43
2019-04-26T01:29:17.169Z,10.30
2019-04-26T01:31:55.419Z,8.37
2019-04-26T01:34:30.880Z,9.60
2019-04-26T01:37:03.162Z,10.17
2019-04-26T01:39:37.197Z,8.00
2019-04-26T01:42:17.953Z,6.83
2019-04-26T01:44:59.167Z,8.63
2019-04-26T01:47:30.563Z,7.30
2019-04-26T01:50:01.845Z,7.37
2019-04-26T01:52:33.316Z,7.80
2019-04-26T01:55:06.967Z,6.13
2019-04-26T01:57:39.479Z,6.90
2019-04-26T02:00:28.032Z,6.00
2019-04-26T02:03:02.747Z,6.10
2019-04-26T02:05:34.035Z,6.07
2019-04-26T02:08:05.247Z,6.57
2019-04-26T02:10:36.543Z,7.57
2019-04-26T02:13:07.456Z,6.53
2019-04-26T02:15:38.738Z,6.43
2019-04-26T02:18:09.868Z,7.83
2019-04-26T02:20:56.328Z,7.60
2019-04-26T02:23:34.272Z,6.10
2019-04-26T02:26:24.023Z,6.63
2019-04-26T02:28:56.283Z,6.80
2019-04-26T02:31:29.293Z,7.10
2019-04-26T02:34:02.739Z,8.57
2019-04-26T02:36:55.222Z,6.80
2019-04-26T02:39:18.197Z,5.70
2019-04-26T02:41:51.973Z,6.30
2019-04-26T02:44:28.918Z,8.00
2019-04-26T02:47:30.328Z,6.60
2019-04-26T02:50:05.456Z,7.13
2019-04-26T02:53:04.628Z,9.20
2019-04-26T02:56:18.428Z,5.90
2019-04-26T02:59:37.699Z,6.50
2019-04-26T03:02:21.562Z,6.53
2019-04-26T03:04:56.745Z,6.83
2019-04-26T03:07:53.339Z,7.33
2019-04-26T03:10:34.725Z,7.10
2019-04-26T03:13:09.921Z,7.17
2019-04-26T03:16:11.503Z,6.37
2019-04-26T03:18:59.352Z,7.57
2019-04-26T03:21:41.059Z,6.27
2019-04-26T03:24:21.129Z,7.13
2019-04-26T03:27:25.958Z,6.73
2019-04-26T03:30:20.036Z,7.20
2019-04-26T03:32:58.614Z,10.50
2019-04-26T03:36:17.395Z,5.97
2019-04-26T03:39:21.984Z,6.43
2019-04-26T03:42:18.279Z,8.77
2019-04-26T03:45:29.152Z,6.83
2019-04-26T03:48:11.863Z,6.77
2019-04-26T03:50:53.191Z,6.73
2019-04-26T03:53:38.302Z,6.43
2019-04-26T03:56:45.640Z,7.00
2019-04-26T03:59:44.022Z,6.43
2019-04-26T04:02:24.628Z,6.53
2019-04-26T04:05:10.833Z,7.77
2019-04-26T04:07:47.841Z,7.33
2019-04-26T04:10:20.620Z,7.00
2019-04-26T04:13:06.832Z,8.13
2019-04-26T04:15:46.740Z,6.77
2019-04-26T04:18:23.559Z,7.70
2019-04-26T04:21:38.649Z,8.43
2019-04-26T04:24:19.360Z,7.20
2019-04-26T04:27:17.108Z,8.47
2019-04-26T04:30:24.724Z,7.77
2019-04-26T04:33:31.168Z,6.83
2019-04-26T04:36:14.249Z,6.77
2019-04-26T04:39:10.786Z,7.13
2019-04-26T04:41:43.010Z,8.77
2019-04-26T04:44:38.036Z,7.40
2019-04-26T04:47:31.134Z,8.40
2019-04-26T04:50:30.457Z,6.67
2019-04-26T04:53:23.534Z,7.17
2019-04-26T04:56:25.728Z,7.27
2019-04-26T04:59:00.852Z,6.20
2019-04-26T05:02:22.219Z,8.03
2019-04-26T05:05:18.668Z,8.20
2019-04-26T05:08:08.275Z,7.07
2019-04-26T05:10:54.123Z,6.77
2019-04-26T05:13:46.535Z,6.97
2019-04-26T05:17:19.791Z,7.53
2019-04-26T05:20:15.093Z,7.00
2019-04-26T05:23:16.275Z,6.67
2019-04-26T05:26:18.338Z,6.93
2019-04-26T05:29:09.623Z,6.53
2019-04-26T05:31:54.310Z,8.27
2019-04-26T05:34:53.240Z,8.33
2019-04-26T05:37:49.214Z,7.17
2019-04-26T05:40:58.375Z,7.63
2019-04-26T05:44:03.157Z,9.20
2019-04-26T05:46:52.051Z,8.13
2019-04-26T05:50:04.256Z,7.53
2019-04-26T05:53:32.495Z,7.20
2019-04-26T05:56:43.868Z,7.40
2019-04-26T05:59:24.680Z,6.97
2019-04-26T06:02:44.751Z,8.03
2019-04-26T06:05:52.723Z,8.67
2019-04-26T06:09:01.755Z,7.57
2019-04-26T06:11:43.367Z,7.57
2019-04-26T06:14:48.303Z,8.73
2019-04-26T06:18:23.904Z,9.77
2019-04-26T06:21:09.331Z,8.80
2019-04-26T06:24:01.025Z,7.20
2019-04-26T06:27:12.179Z,8.57
2019-04-26T06:30:08.632Z,8.77
2019-04-26T06:33:03.161Z,8.63
2019-04-26T06:35:36.791Z,8.83
2019-04-26T06:38:54.932Z,8.00
2019-04-26T06:42:05.219Z,9.67
2019-04-26T06:45:52.607Z,8.00
2019-04-26T06:48:59.753Z,6.87
2019-04-26T06:51:40.192Z,8.30
2019-04-26T06:54:22.622Z,9.60
2019-04-26T06:58:02.875Z,9.80
2019-04-26T07:01:29.923Z,7.20
2019-04-26T07:04:16.470Z,8.10
2019-04-26T07:07:24.418Z,8.63
2019-04-26T07:10:31.396Z,9.00
2019-04-26T07:13:35.448Z,9.80
2019-04-26T07:16:39.435Z,8.80
2019-04-26T07:19:17.964Z,9.70
2019-04-26T07:22:35.451Z,11.87
2019-04-26T07:25:35.167Z,10.07
2019-04-26T07:28:26.688Z,8.40
2019-04-26T07:31:08.801Z,9.77
2019-04-26T07:33:57.508Z,9.00
2019-04-26T07:37:31.288Z,10.83
2019-04-26T07:40:29.276Z,9.10
2019-04-26T07:43:36.172Z,10.47
2019-04-26T07:46:21.476Z,8.93
2019-04-26T07:49:19.591Z,10.87
2019-04-26T07:52:26.520Z,9.57
2019-04-26T07:55:18.889Z,11.00
2019-04-26T07:58:27.635Z,8.57
2019-04-26T08:01:14.268Z,9.63
2019-04-26T08:03:57.479Z,8.60
2019-04-26T08:06:44.232Z,8.43
2019-04-26T08:09:26.597Z,7.67
2019-04-26T08:11:53.458Z,9.37
2019-04-26T08:14:46.879Z,9.33
2019-04-26T08:17:36.432Z,8.03
2019-04-26T08:20:38.899Z,8.90
2019-04-26T08:23:28.206Z,9.33
2019-04-26T08:25:49.548Z,7.93
2019-04-26T08:28:23.995Z,8.17
2019-04-26T08:30:57.181Z,10.50
2019-04-26T08:33:35.473Z,9.80
2019-04-26T08:36:08.800Z,7.23
2019-04-26T08:38:43.731Z,8.53
2019-04-26T08:41:18.459Z,8.10
2019-04-26T08:44:18.792Z,7.50
2019-04-26T08:47:13.890Z,10.30
2019-04-26T08:50:02.505Z,9.37
2019-04-26T08:52:37.230Z,8.33
2019-04-26T08:55:10.665Z,8.50
2019-04-26T08:57:44.891Z,7.10
2019-04-26T09:00:37.772Z,8.43
2019-04-26T09:03:27.840Z,8.27
2019-04-26T09:06:21.663Z,9.20
2019-04-26T09:08:56.639Z,8.33
2019-04-26T09:11:33.416Z,9.77
2019-04-26T09:14:14.399Z,8.07
2019-04-26T09:16:50.370Z,9.47
2019-04-26T09:19:18.327Z,8.60
2019-04-26T09:22:12.171Z,8.87
2019-04-26T09:25:03.476Z,9.00
2019-04-26T09:27:40.637Z,9.20
2019-04-26T09:30:33.117Z,9.47
2019-04-26T09:33:02.938Z,9.10
2019-04-26T09:35:38.087Z,13.13
2019-04-26T09:38:09.097Z,10.40
2019-04-26T09:40:41.702Z,9.63
2019-04-26T09:43:18.567Z,9.90
2019-04-26T09:46:03.751Z,9.80
2019-04-26T09:48:54.005Z,9.47
2019-04-26T09:51:26.915Z,9.07
2019-04-26T09:53:59.041Z,9.37
2019-04-26T09:56:30.492Z,9.07
2019-04-26T09:59:05.605Z,8.20
2019-04-26T10:01:34.635Z,7.77
2019-04-26T10:04:07.220Z,7.87
2019-04-26T10:06:39.847Z,10.07
2019-04-26T10:09:17.426Z,9.20
2019-04-26T10:11:53.327Z,9.40
2019-04-26T10:14:32.389Z,8.63
2019-04-26T10:17:25.247Z,8.20
2019-04-26T10:19:57.534Z,9.07
2019-04-26T10:22:31.490Z,8.67
2019-04-26T10:25:07.272Z,8.80
2019-04-26T10:27:36.372Z,10.13
2019-04-26T10:30:10.532Z,9.47
2019-04-26T10:32:41.594Z,7.80
2019-04-26T10:35:13.184Z,9.60
2019-04-26T10:37:48.094Z,8.57
2019-04-26T10:40:17.519Z,8.97
2019-04-26T10:42:48.725Z,10.70
2019-04-26T10:45:21.488Z,7.17
2019-04-26T10:47:52.728Z,8.13
2019-04-26T10:50:24.337Z,6.07
2019-04-26T10:53:04.199Z,6.97
2019-04-26T10:55:53.907Z,6.80
2019-04-26T10:58:31.862Z,5.00
2019-04-26T11:01:09.871Z,7.30
2019-04-26T11:03:42.075Z,5.63
2019-04-26T11:06:13.315Z,7.80
2019-04-26T11:08:44.353Z,8.70
2019-04-26T11:11:15.750Z,6.80
2019-04-26T11:13:48.279Z,6.63
2019-04-26T11:16:19.560Z,6.83
2019-04-26T11:18:51.657Z,5.90
2019-04-26T11:21:24.139Z,6.83
2019-04-26T11:23:55.039Z,4.17
2019-04-26T11:26:27.540Z,6.80
2019-04-26T11:28:58.515Z,6.43
2019-04-26T11:31:29.455Z,8.33
2019-04-26T11:34:05.550Z,6.13
2019-04-26T11:36:33.609Z,4.97
2019-04-26T11:39:08.105Z,4.87
2019-04-26T11:41:39.578Z,6.93
2019-04-26T11:44:11.016Z,5.17
2019-04-26T11:46:44.812Z,5.43
2019-04-26T11:49:14.844Z,4.87
2019-04-26T11:51:46.151Z,3.57
2019-04-26T11:54:20.759Z,3.80
2019-04-26T11:56:50.448Z,5.90
2019-04-26T11:59:22.019Z,5.70
2019-04-26T12:01:53.027Z,5.20
2019-04-26T12:04:42.672Z,4.53
2019-04-26T12:07:26.926Z,4.67
2019-04-26T12:09:59.839Z,5.03
2019-04-26T12:12:31.064Z,4.13
2019-04-26T12:15:03.826Z,6.57
2019-04-26T12:17:36.792Z,5.33
2019-04-26T12:20:08.263Z,5.60
2019-04-26T12:22:43.367Z,6.10
2019-04-26T12:25:12.755Z,5.43
2019-04-26T12:27:44.393Z,5.33
2019-04-26T12:30:16.910Z,5.33
2019-04-26T12:32:50.058Z,5.67
2019-04-26T12:35:20.956Z,6.27
2019-04-26T12:37:54.821Z,5.97
2019-04-26T12:40:26.964Z,6.40
2019-04-26T12:42:58.121Z,6.07
2019-04-26T12:45:37.740Z,6.23
2019-04-26T12:48:12.308Z,6.17
2019-04-26T12:50:43.272Z,6.40
2019-04-26T12:53:14.247Z,6.03
2019-04-26T12:55:45.391Z,5.83
2019-04-26T12:58:16.563Z,6.83
2019-04-26T13:00:54.373Z,5.30
2019-04-26T13:03:21.041Z,5.43
2019-04-26T13:05:57.821Z,5.70
2019-04-26T13:08:25.095Z,5.47
2019-04-26T13:11:15.178Z,7.97
2019-04-26T13:14:04.531Z,7.53
2019-04-26T13:16:40.223Z,10.57
2019-04-26T13:19:11.378Z,6.40
2019-04-26T13:21:42.535Z,5.83
2019-04-26T13:24:13.760Z,8.23
2019-04-26T13:26:45.032Z,7.00
2019-04-26T13:29:16.032Z,7.73
2019-04-26T13:31:47.300Z,6.57
2019-04-26T13:34:18.800Z,6.00
2019-04-26T13:36:50.062Z,5.57
2019-04-26T13:39:22.525Z,4.83
2019-04-26T13:42:02.881Z,5.10
2019-04-26T13:44:44.843Z,5.70
2019-04-26T13:47:29.806Z,5.53
2019-04-26T13:50:06.621Z,4.77
2019-04-26T13:52:37.802Z,5.17
2019-04-26T13:55:09.226Z,5.20
2019-04-26T13:57:44.374Z,5.83
2019-04-26T14:00:17.503Z,4.33
2019-04-26T14:02:48.675Z,4.57
2019-04-26T14:05:19.927Z,6.40
2019-04-26T14:07:51.083Z,3.50
2019-04-26T14:10:22.751Z,3.70
2019-04-26T14:12:53.914Z,4.30
2019-04-26T14:15:25.369Z,4.03
2019-04-26T14:18:00.278Z,4.90
2019-04-26T14:20:29.612Z,4.80
2019-04-26T14:23:11.289Z,4.73
2019-04-26T14:25:55.648Z,5.63
2019-04-26T14:28:26.701Z,5.10
2019-04-26T14:30:58.011Z,3.90
2019-04-26T14:33:30.881Z,4.03
2019-04-26T14:36:03.315Z,5.87
2019-04-26T14:38:39.251Z,3.20
2019-04-26T14:41:07.874Z,3.13
2019-04-26T14:43:41.165Z,6.33
2019-04-26T14:46:14.720Z,5.73
2019-04-26T14:48:47.675Z,4.23
2019-04-26T14:51:18.664Z,7.13
2019-04-26T14:53:50.367Z,3.50
2019-04-26T14:56:24.728Z,4.73
2019-04-26T14:58:54.215Z,3.97
2019-04-26T15:01:36.035Z,4.10
2019-04-26T15:04:28.123Z,4.90
2019-04-26T15:06:59.628Z,5.03
2019-04-26T15:09:35.828Z,5.20
2019-04-26T15:12:03.705Z,3.47
2019-04-26T15:14:36.534Z,6.50
2019-04-26T15:17:24.390Z,7.93
2019-04-26T15:19:53.946Z,5.97
2019-04-26T15:22:25.127Z,4.70
2019-04-26T15:24:56.272Z,5.57
2019-04-26T15:27:32.133Z,8.33
2019-04-26T15:30:04.274Z,5.97
2019-04-26T15:32:35.355Z,9.47
2019-04-26T15:35:08.992Z,7.10
2019-04-26T15:37:42.228Z,6.77
2019-04-26T15:40:27.343Z,7.83
2019-04-26T15:43:14.907Z,6.60
2019-04-26T15:46:02.336Z,5.57
2019-04-26T15:48:54.147Z,6.37
2019-04-26T15:51:27.570Z,12.30
2019-04-26T15:53:58.915Z,5.97
2019-04-26T15:56:29.883Z,5.93
2019-04-26T15:59:02.559Z,5.70
2019-04-26T16:01:33.924Z,6.00
2019-04-26T16:04:06.577Z,4.23
2019-04-26T16:06:41.965Z,5.70
2019-04-26T16:09:15.532Z,3.93
2019-04-26T16:11:49.589Z,3.70
2019-04-26T16:14:17.605Z,5.25
2019-04-26T16:16:48.779Z,4.20
2019-04-26T16:19:19.917Z,7.33
2019-04-26T16:21:57.059Z,5.70
2019-04-26T16:24:29.132Z,5.10
2019-04-26T16:27:00.131Z,4.20
2019-04-26T16:29:58.342Z,5.07
2019-04-26T16:32:43.246Z,4.57
2019-04-26T16:35:18.241Z,7.83
2019-04-26T16:37:47.424Z,3.63
2019-04-26T16:40:19.683Z,3.90
2019-04-26T16:42:56.639Z,3.13
2019-04-26T16:45:24.955Z,4.47
2019-04-26T16:47:55.869Z,3.73
2019-04-26T16:50:31.645Z,4.33
2019-04-26T16:52:59.915Z,2.87
2019-04-26T16:55:38.056Z,4.47
2019-04-26T16:58:04.483Z,1.77
2019-04-26T17:00:50.798Z,4.23
2019-04-26T17:03:08.457Z,3.97
2019-04-26T17:05:48.351Z,1.13
2019-04-26T17:08:12.986Z,2.80
2019-04-26T17:10:44.360Z,2.73
2019-04-26T17:13:15.971Z,1.07
2019-04-26T17:15:47.127Z,1.80
2019-04-26T17:18:32.380Z,2.17
2019-04-26T17:21:05.615Z,1.30
2019-04-26T17:23:55.224Z,1.63
2019-04-26T17:26:33.605Z,1.00
2019-04-26T17:29:05.290Z,1.33
2019-04-26T17:31:36.523Z,2.00
2019-04-26T17:34:07.555Z,1.30
2019-04-26T17:36:38.708Z,3.23
2019-04-26T17:39:16.952Z,4.03
2019-04-26T17:41:50.677Z,1.67
2019-04-26T17:44:20.712Z,1.20
2019-04-26T17:46:56.326Z,2.40
2019-04-26T17:49:27.118Z,4.37
2019-04-26T17:51:59.837Z,1.33
2019-04-26T17:54:45.671Z,2.23
2019-04-26T17:57:04.482Z,2.63
2019-04-26T17:59:37.061Z,2.73
2019-04-26T18:02:20.574Z,2.40
2019-04-26T18:04:43.292Z,2.97
2019-04-26T18:07:37.771Z,2.10
2019-04-26T18:09:52.580Z,1.77
2019-04-26T18:12:23.759Z,1.43
2019-04-26T18:14:55.323Z,1.70
2019-04-26T18:17:53.747Z,2.93
2019-04-26T18:20:44.504Z,1.57
2019-04-26T18:23:18.567Z,2.20
2019-04-26T18:25:49.187Z,2.23
2019-04-26T18:28:20.344Z,1.27
2019-04-26T18:30:53.111Z,2.90
2019-04-26T18:33:25.967Z,1.37
2019-04-26T18:35:57.523Z,1.57
2019-04-26T18:38:28.699Z,2.70
2019-04-26T18:41:01.221Z,1.43
2019-04-26T18:43:32.824Z,2.63
2019-04-26T18:46:13.571Z,1.77
2019-04-26T18:48:46.532Z,1.63
2019-04-26T18:51:18.795Z,1.40
2019-04-26T18:54:09.312Z,1.60
2019-04-26T18:56:42.362Z,2.77
2019-04-26T18:59:15.545Z,1.72
2019-04-26T19:01:47.084Z,3.00
2019-04-26T19:04:18.428Z,2.03
2019-04-26T19:06:49.659Z,1.97
2019-04-26T19:09:24.331Z,1.57
2019-04-26T19:11:56.272Z,2.07
2019-04-26T19:14:49.735Z,3.10
2019-04-26T19:17:36.628Z,2.97
2019-04-26T19:20:27.395Z,1.83
2019-04-26T19:23:00.137Z,3.57
2019-04-26T19:25:34.483Z,4.60
2019-04-26T19:28:08.092Z,4.20
2019-04-26T19:30:39.978Z,2.27
2019-04-26T19:33:16.529Z,1.80
2019-04-26T19:35:47.252Z,1.83
2019-04-26T19:38:16.632Z,3.03
2019-04-26T19:40:48.179Z,2.37
2019-04-26T19:43:32.570Z,5.40
2019-04-26T19:46:25.188Z,3.27
2019-04-26T19:49:14.418Z,2.97
2019-04-26T19:52:16.640Z,1.30
2019-04-26T19:54:59.812Z,1.87
2019-04-26T19:57:45.535Z,2.10
2019-04-26T20:00:17.403Z,2.67
2019-04-26T20:02:48.607Z,1.37
2019-04-26T20:05:19.864Z,1.70
2019-04-26T20:07:51.858Z,2.57
2019-04-26T20:10:23.317Z,4.33
2019-04-26T20:12:55.382Z,2.17
2019-04-26T20:15:28.680Z,2.20
2019-04-26T20:18:01.307Z,3.03
2019-04-26T20:20:35.311Z,2.80
2019-04-26T20:23:07.860Z,2.17
2019-04-26T20:25:38.556Z,3.97
2019-04-26T20:28:09.727Z,1.50
2019-04-26T20:30:52.379Z,1.90
2019-04-26T20:33:26.736Z,4.40
2019-04-26T20:35:57.432Z,2.43
2019-04-26T20:38:35.775Z,2.17
2019-04-26T20:41:03.752Z,3.70
2019-04-26T20:43:36.817Z,1.87
2019-04-26T20:46:14.112Z,3.40
2019-04-26T20:48:42.501Z,2.60
2019-04-26T20:51:12.972Z,4.00
2019-04-26T20:53:44.346Z,3.10
2019-04-26T20:56:18.229Z,2.70
2019-04-26T20:58:48.547Z,1.97
2019-04-26T21:01:19.755Z,3.43
2019-04-26T21:03:51.707Z,2.30
2019-04-26T21:06:24.099Z,2.80
2019-04-26T21:08:59.187Z,3.40
2019-04-26T21:11:30.257Z,2.63
2019-04-26T21:14:03.352Z,2.90
2019-04-26T21:16:33.822Z,4.37
2019-04-26T21:19:05.199Z,2.37
2019-04-26T21:21:36.404Z,1.73
2019-04-26T21:24:07.811Z,4.60
2019-04-26T21:26:52.802Z,2.73
2019-04-26T21:29:31.695Z,5.00
2019-04-26T21:32:24.609Z,1.93
2019-04-26T21:34:56.419Z,2.80
2019-04-26T21:37:35.852Z,3.77
2019-04-26T21:40:31.049Z,3.90
2019-04-26T21:43:03.252Z,2.07
2019-04-26T21:45:34.570Z,4.03
2019-04-26T21:48:06.885Z,5.97
2019-04-26T21:50:39.232Z,3.30
2019-04-26T21:53:10.771Z,4.40
2019-04-26T21:55:43.480Z,6.33
2019-04-26T21:58:14.708Z,5.07
2019-04-26T22:01:11.093Z,4.17
2019-04-26T22:03:47.493Z,4.03
2019-04-26T22:06:19.992Z,3.83
2019-04-26T22:08:59.299Z,2.33
2019-04-26T22:11:29.291Z,3.93
2019-04-26T22:14:07.836Z,3.23
2019-04-26T22:16:44.682Z,7.50
2019-04-26T22:19:32.559Z,5.03
2019-04-26T22:22:23.104Z,6.97
2019-04-26T22:24:55.492Z,7.87
2019-04-26T22:27:26.843Z,8.63
2019-04-26T22:29:58.173Z,5.10
2019-04-26T22:32:29.384Z,6.50
2019-04-26T22:35:00.535Z,5.63
2019-04-26T22:37:33.603Z,6.17
2019-04-26T22:40:04.796Z,4.77
2019-04-26T22:42:41.558Z,4.10
2019-04-26T22:45:27.803Z,7.43
2019-04-26T22:48:19.168Z,5.30
2019-04-26T22:50:46.460Z,6.50
2019-04-26T22:53:21.626Z,8.30
2019-04-26T22:55:50.542Z,6.33
2019-04-26T22:58:25.471Z,6.57
2019-04-26T23:00:58.465Z,7.30
2019-04-26T23:03:29.327Z,7.10
2019-04-26T23:06:00.539Z,8.07
2019-04-26T23:08:35.215Z,8.30
2019-04-26T23:11:09.213Z,9.30
2019-04-26T23:13:46.187Z,8.17
2019-04-26T23:16:40.467Z,7.73
2019-04-26T23:19:30.380Z,7.50
2019-04-26T23:22:01.784Z,6.63
2019-04-26T23:24:33.171Z,6.43
2019-04-26T23:27:04.206Z,8.40
2019-04-26T23:29:35.361Z,7.83
2019-04-26T23:32:06.507Z,12.60
2019-04-26T23:34:37.418Z,8.37
2019-04-26T23:37:08.828Z,9.40
2019-04-26T23:39:44.387Z,7.93
2019-04-26T23:42:16.463Z,7.43
2019-04-26T23:44:45.703Z,10.03
2019-04-26T23:47:21.077Z,8.17
2019-04-26T23:49:53.020Z,6.73
2019-04-26T23:52:24.308Z,10.10
2019-04-26T23:54:54.899Z,6.23
2019-04-26T23:57:27.505Z,7.70
